createdAt,value
2022-10-08T00:01:50.318Z,13.50
2022-10-08T00:05:05.624Z,13.60
2022-10-08T00:08:13.573Z,13.60
2022-10-08T00:14:54.052Z,13.60
2022-10-08T00:18:43.612Z,13.60
2022-10-08T00:22:08.322Z,13.50
2022-10-08T00:28:33.090Z,13.40
2022-10-08T00:32:18.640Z,13.40
2022-10-08T00:38:28.302Z,13.30
2022-10-08T00:41:29.199Z,13.40
2022-10-08T00:45:02.476Z,13.40
2022-10-08T00:48:35.490Z,13.40
2022-10-08T00:51:47.285Z,13.40
2022-10-08T00:55:07.152Z,13.40
2022-10-08T00:58:22.532Z,13.30
2022-10-08T01:01:55.534Z,13.30
2022-10-08T01:04:49.660Z,13.30
2022-10-08T01:07:46.604Z,13.20
2022-10-08T01:11:08.753Z,13.20
2022-10-08T01:14:50.310Z,13.30
2022-10-08T01:18:06.443Z,13.30
2022-10-08T01:21:17.940Z,13.20
2022-10-08T01:25:09.141Z,13.20
2022-10-08T01:28:25.128Z,13.10
2022-10-08T01:31:40.756Z,13.00
2022-10-08T01:34:49.046Z,13.10
2022-10-08T01:37:40.987Z,13.10
2022-10-08T01:40:46.538Z,13.10
2022-10-08T01:43:47.884Z,13.10
2022-10-08T01:46:47.297Z,13.10
2022-10-08T01:50:02.906Z,13.00
2022-10-08T01:53:25.300Z,12.90
2022-10-08T01:56:32.983Z,12.90
2022-10-08T01:59:31.464Z,12.90
2022-10-08T02:05:50.449Z,12.80
2022-10-08T02:12:31.997Z,12.80
2022-10-08T02:15:51.246Z,12.70
2022-10-08T02:19:54.698Z,12.80
2022-10-08T02:26:18.887Z,12.90
2022-10-08T02:29:17.284Z,12.80
2022-10-08T02:32:41.900Z,12.80
2022-10-08T02:45:24.992Z,12.70
2022-10-08T02:49:36.285Z,12.70
2022-10-08T02:53:02.975Z,12.70
2022-10-08T03:00:35.221Z,12.50
2022-10-08T03:03:54.574Z,12.50
2022-10-08T03:06:49.333Z,12.50
2022-10-08T03:10:37.779Z,12.50
2022-10-08T03:19:28.981Z,12.40
2022-10-08T03:22:30.688Z,12.40
2022-10-08T03:26:10.390Z,12.40
2022-10-08T03:29:10.794Z,12.40
2022-10-08T03:36:52.952Z,12.50
2022-10-08T03:40:11.157Z,12.50
2022-10-08T03:44:21.882Z,12.60
2022-10-08T03:54:02.452Z,12.60
2022-10-08T04:02:10.044Z,12.50
2022-10-08T04:04:27.046Z,12.50
2022-10-08T04:07:51.644Z,12.50
2022-10-08T04:11:08.519Z,12.50
2022-10-08T04:14:20.926Z,12.50
2022-10-08T04:17:29.998Z,12.50
2022-10-08T04:21:23.785Z,12.50
2022-10-08T04:25:04.076Z,12.50
2022-10-08T04:27:43.533Z,12.50
2022-10-08T04:30:38.676Z,12.40
2022-10-08T04:34:06.511Z,12.40
2022-10-08T04:37:17.813Z,12.50
2022-10-08T04:42:48.878Z,12.50
2022-10-08T04:44:30.959Z,12.40
2022-10-08T04:51:10.531Z,12.30
2022-10-08T04:54:16.144Z,12.40
2022-10-08T04:57:25.673Z,12.30
2022-10-08T05:04:42.734Z,12.30
2022-10-08T05:08:13.492Z,12.20
2022-10-08T05:11:21.473Z,12.10
2022-10-08T05:14:14.427Z,12.10
2022-10-08T05:17:30.729Z,12.20
2022-10-08T05:20:29.007Z,12.10
2022-10-08T05:23:22.587Z,12.20
2022-10-08T05:26:31.879Z,12.20
2022-10-08T05:29:33.889Z,12.20
2022-10-08T05:32:36.415Z,12.10
2022-10-08T05:36:08.642Z,12.10
2022-10-08T05:39:46.307Z,12.10
2022-10-08T05:43:16.785Z,12.10
2022-10-08T05:46:15.833Z,12.10
2022-10-08T05:49:14.169Z,12.00
2022-10-08T05:52:25.684Z,12.10
2022-10-08T05:55:22.120Z,12.20
2022-10-08T05:58:21.701Z,12.10
2022-10-08T06:02:00.550Z,12.10
2022-10-08T06:04:56.708Z,12.10
2022-10-08T06:08:17.053Z,12.10
2022-10-08T06:11:12.558Z,12.10
2022-10-08T06:14:10.651Z,12.10
2022-10-08T06:17:10.339Z,12.10
2022-10-08T06:20:01.340Z,12.10
2022-10-08T06:23:52.459Z,12.00
2022-10-08T06:29:06.615Z,12.10
2022-10-08T06:30:37.291Z,12.10
2022-10-08T06:33:58.984Z,12.20
2022-10-08T06:38:01.474Z,12.20
2022-10-08T06:45:02.047Z,12.30
2022-10-08T07:05:07.978Z,12.90
2022-10-08T07:17:45.314Z,13.40
2022-10-08T07:20:32.460Z,13.60
2022-10-08T07:23:19.875Z,13.70
2022-10-08T07:26:17.443Z,13.90
2022-10-08T07:29:08.306Z,14.10
2022-10-08T07:31:55.827Z,13.90
2022-10-08T07:34:43.023Z,13.70
2022-10-08T07:37:30.520Z,13.50
2022-10-08T07:40:17.961Z,13.20
2022-10-08T07:53:05.790Z,12.90
2022-10-08T07:59:11.043Z,12.70
2022-10-08T08:06:28.210Z,12.80
2022-10-08T08:09:16.366Z,12.70
2022-10-08T08:12:03.826Z,12.80
2022-10-08T08:14:51.260Z,12.70
2022-10-08T08:17:47.400Z,12.90
2022-10-08T08:20:34.504Z,12.90
2022-10-08T08:23:35.861Z,12.90
2022-10-08T08:27:03.700Z,13.10
2022-10-08T08:32:05.544Z,13.20
2022-10-08T09:15:36.405Z,14.70
2022-10-08T09:18:30.964Z,14.90
2022-10-08T09:21:26.382Z,14.60
2022-10-08T09:24:22.506Z,14.20
2022-10-08T09:30:41.617Z,15.00
2022-10-08T09:33:38.031Z,15.60
2022-10-08T10:23:17.047Z,15.20
2022-10-08T10:26:39.558Z,15.40
2022-10-08T10:29:45.094Z,15.80
2022-10-08T10:32:41.167Z,16.20
2022-10-08T10:35:40.264Z,16.30
2022-10-08T10:38:34.176Z,16.50
2022-10-08T10:41:43.849Z,16.50
2022-10-08T10:44:58.630Z,16.70
2022-10-08T10:47:49.873Z,16.90
2022-10-08T10:50:49.444Z,16.90
2022-10-08T11:02:34.961Z,17.20
2022-10-08T11:05:37.397Z,17.70
2022-10-08T11:15:51.647Z,16.90
2022-10-08T11:18:08.986Z,16.50
2022-10-08T11:21:36.099Z,16.60
2022-10-08T11:24:45.774Z,17.00
2022-10-08T11:27:58.967Z,17.10
2022-10-08T11:31:31.857Z,17.10
2022-10-08T11:34:34.562Z,17.10
2022-10-08T11:37:35.473Z,17.70
2022-10-08T11:40:46.687Z,17.30
2022-10-08T11:47:43.446Z,16.40
2022-10-08T11:50:43.353Z,16.00
2022-10-08T11:53:41.751Z,15.90
2022-10-08T11:56:44.821Z,15.60
2022-10-08T11:59:48.319Z,15.60
2022-10-08T12:11:40.144Z,17.20
2022-10-08T12:15:02.990Z,17.70
2022-10-08T12:18:29.116Z,18.10
2022-10-08T12:21:21.136Z,18.30
2022-10-08T12:24:48.874Z,17.90
2022-10-08T12:27:46.980Z,16.90
2022-10-08T12:30:53.489Z,16.20
2022-10-08T12:33:47.024Z,16.10
2022-10-08T12:36:48.824Z,15.90
2022-10-08T12:43:50.435Z,17.00
2022-10-08T12:47:22.470Z,17.50
2022-10-08T12:51:28.828Z,17.50
2022-10-08T12:54:22.331Z,17.80
2022-10-08T12:57:24.466Z,17.80
2022-10-08T13:00:33.077Z,18.20
2022-10-08T13:03:26.302Z,17.80
2022-10-08T14:51:24.673Z,17.30
2022-10-08T14:55:15.418Z,17.70
2022-10-08T14:58:32.943Z,17.40
2022-10-08T15:01:20.905Z,17.30
2022-10-08T15:05:01.173Z,17.20
2022-10-08T15:07:56.093Z,17.10
2022-10-08T15:10:58.639Z,16.50
2022-10-08T15:13:46.918Z,16.40
2022-10-08T15:16:37.672Z,16.60
2022-10-08T15:19:33.498Z,16.70
2022-10-08T16:02:40.015Z,15.80
2022-10-08T16:05:29.776Z,15.60
2022-10-08T16:14:46.560Z,15.00
2022-10-08T16:17:37.799Z,15.10
2022-10-08T17:24:24.356Z,14.20
2022-10-08T17:27:13.411Z,14.10
2022-10-08T17:30:01.247Z,14.10
2022-10-08T17:32:48.738Z,14.10
2022-10-08T17:35:54.357Z,14.10
2022-10-08T17:38:44.204Z,13.90
2022-10-08T17:41:35.204Z,13.90
2022-10-08T17:44:22.965Z,13.90
2022-10-08T17:47:10.125Z,13.90
2022-10-08T17:52:55.091Z,13.90
2022-10-08T17:55:42.574Z,13.80
2022-10-08T17:58:30.282Z,13.80
2022-10-08T18:01:19.050Z,13.60
2022-10-08T18:04:10.024Z,13.70
2022-10-08T18:10:47.457Z,13.60
2022-10-08T18:13:36.037Z,13.60
2022-10-08T18:16:25.902Z,13.50
2022-10-08T18:19:13.311Z,13.50
2022-10-08T18:22:13.500Z,13.60
2022-10-08T18:25:04.077Z,13.60
2022-10-08T18:28:00.586Z,13.60
2022-10-08T18:31:05.849Z,13.60
2022-10-08T18:40:30.965Z,13.50
2022-10-08T18:43:41.014Z,13.50
2022-10-08T18:46:49.063Z,13.60
2022-10-08T18:49:39.909Z,13.60
2022-10-08T18:52:34.343Z,13.50
2022-10-08T18:55:22.182Z,13.50
2022-10-08T18:58:09.877Z,13.40
2022-10-08T19:04:06.011Z,13.40
2022-10-08T19:06:53.502Z,13.30
2022-10-08T19:09:40.993Z,13.30
2022-10-08T19:13:29.435Z,13.20
2022-10-08T19:16:18.078Z,13.20
2022-10-08T19:25:22.891Z,13.20
2022-10-08T19:29:21.750Z,13.20
2022-10-08T19:41:18.926Z,13.20
2022-10-08T19:47:42.713Z,13.20
2022-10-08T19:53:40.948Z,13.10
2022-10-08T20:06:24.234Z,13.00
2022-10-08T20:09:13.595Z,12.90
2022-10-08T20:12:22.317Z,12.90
2022-10-08T20:15:10.112Z,12.80
2022-10-08T20:17:57.332Z,12.80
2022-10-08T20:20:44.809Z,12.80
2022-10-08T20:23:32.448Z,12.70
2022-10-08T20:29:27.430Z,12.60
2022-10-08T20:32:17.613Z,12.60
2022-10-08T20:35:05.711Z,12.60
2022-10-08T20:37:52.901Z,12.60
2022-10-08T20:40:42.161Z,12.60
2022-10-08T20:43:30.747Z,12.50
2022-10-08T20:46:18.929Z,12.50
2022-10-08T20:49:06.720Z,12.40
2022-10-08T20:51:53.860Z,12.30
2022-10-08T20:54:41.379Z,12.40
2022-10-08T20:57:28.884Z,12.30
2022-10-08T21:21:24.960Z,12.20
2022-10-08T22:06:58.439Z,11.70
2022-10-08T22:09:45.974Z,11.70
2022-10-08T22:12:33.065Z,11.50
2022-10-08T22:15:20.119Z,11.60
2022-10-08T22:18:07.257Z,11.60
2022-10-08T22:20:54.909Z,11.60
2022-10-08T22:23:42.595Z,11.60
2022-10-08T22:26:32.883Z,11.60
2022-10-08T22:29:20.421Z,11.50
2022-10-08T22:32:07.945Z,11.40
2022-10-08T22:38:12.787Z,11.50
2022-10-08T22:41:15.086Z,11.40
2022-10-08T22:52:12.758Z,11.50
2022-10-08T22:59:15.790Z,11.40
2022-10-08T23:02:03.327Z,11.40
2022-10-08T23:04:50.768Z,11.40
2022-10-08T23:07:38.385Z,11.50
2022-10-08T23:10:25.903Z,11.50
2022-10-08T23:13:13.304Z,11.60
2022-10-08T23:29:04.872Z,11.60
2022-10-08T23:36:45.507Z,11.50
2022-10-08T23:39:33.554Z,11.50
2022-10-08T23:45:37.923Z,11.40
2022-10-08T23:48:25.569Z,11.40
2022-10-08T23:51:16.843Z,11.30
2022-10-08T23:54:04.692Z,11.30
2022-10-08T23:56:52.168Z,11.30
2022-10-08T23:59:46.880Z,11.40
